sensor_id;sensor_type;location;lat;lon;timestamp;pressure;altitude;pressure_sealevel;temperature;humidity
3132;BME280;62090;52.330;9.104;2023-02-12T00:01:31;103098.03;;;10.05;100.00
3132;BME280;62090;52.330;9.104;2023-02-12T00:04:01;103042.19;;;9.69;100.00
3132;BME280;62090;52.330;9.104;2023-02-12T00:06:31;102903.63;;;8.86;100.00
3132;BME280;62090;52.330;9.104;2023-02-12T00:09:01;103045.84;;;9.72;100.00
3132;BME280;62090;52.330;9.104;2023-02-12T00:11:31;103076.78;;;9.92;100.00
3132;BME280;62090;52.330;9.104;2023-02-12T00:14:01;103013.50;;;9.45;100.00
3132;BME280;62090;52.330;9.104;2023-02-12T00:16:34;103050.94;;;9.72;100.00
3132;BME280;62090;52.330;9.104;2023-02-12T00:19:04;103044.75;;;9.69;100.00
3132;BME280;62090;52.330;9.104;2023-02-12T00:21:34;103017.22;;;9.50;100.00
3132;BME280;62090;52.330;9.104;2023-02-12T00:24:05;102938.75;;;9.05;100.00
3132;BME280;62090;52.330;9.104;2023-02-12T00:26:35;103048.94;;;9.68;100.00
3132;BME280;62090;52.330;9.104;2023-02-12T00:29:05;103058.06;;;9.65;100.00
3132;BME280;62090;52.330;9.104;2023-02-12T00:31:38;103020.44;;;9.48;100.00
3132;BME280;62090;52.330;9.104;2023-02-12T00:34:09;103026.63;;;9.51;100.00
3132;BME280;62090;52.330;9.104;2023-02-12T00:36:39;103055.69;;;9.68;100.00
3132;BME280;62090;52.330;9.104;2023-02-12T00:39:09;103106.59;;;9.93;100.00
3132;BME280;62090;52.330;9.104;2023-02-12T00:41:39;103044.44;;;9.51;100.00
3132;BME280;62090;52.330;9.104;2023-02-12T00:44:09;103061.09;;;9.59;100.00
3132;BME280;62090;52.330;9.104;2023-02-12T00:46:41;103078.13;;;9.73;100.00
3132;BME280;62090;52.330;9.104;2023-02-12T00:49:11;103112.44;;;9.92;100.00
3132;BME280;62090;52.330;9.104;2023-02-12T00:51:41;103086.94;;;9.79;100.00
3132;BME280;62090;52.330;9.104;2023-02-12T00:54:11;103108.81;;;10.01;100.00
3132;BME280;62090;52.330;9.104;2023-02-12T00:56:41;103111.56;;;9.91;100.00
3132;BME280;62090;52.330;9.104;2023-02-12T00:59:11;103106.59;;;9.93;100.00
3132;BME280;62090;52.330;9.104;2023-02-12T01:01:43;103081.00;;;9.78;100.00
3132;BME280;62090;52.330;9.104;2023-02-12T01:04:14;103065.03;;;9.67;100.00
3132;BME280;62090;52.330;9.104;2023-02-12T01:06:44;103098.03;;;9.79;100.00
3132;BME280;62090;52.330;9.104;2023-02-12T01:09:14;103113.53;;;9.82;100.00
3132;BME280;62090;52.330;9.104;2023-02-12T01:11:44;103133.00;;;9.95;100.00
3132;BME280;62090;52.330;9.104;2023-02-12T01:14:14;103092.75;;;9.76;100.00
3132;BME280;62090;52.330;9.104;2023-02-12T01:16:47;103132.06;;;9.93;100.00
3132;BME280;62090;52.330;9.104;2023-02-12T01:19:18;103133.13;;;9.96;100.00
3132;BME280;62090;52.330;9.104;2023-02-12T01:21:48;103074.88;;;9.63;100.00
3132;BME280;62090;52.330;9.104;2023-02-12T01:24:18;103132.94;;;9.93;100.00
3132;BME280;62090;52.330;9.104;2023-02-12T01:26:48;103140.16;;;10.00;100.00
3132;BME280;62090;52.330;9.104;2023-02-12T01:29:18;103098.50;;;9.73;100.00
3132;BME280;62090;52.330;9.104;2023-02-12T01:31:50;103154.97;;;10.06;100.00
3132;BME280;62090;52.330;9.104;2023-02-12T01:34:20;103142.72;;;9.87;100.00
3132;BME280;62090;52.330;9.104;2023-02-12T01:36:51;103124.31;;;9.78;100.00
3132;BME280;62090;52.330;9.104;2023-02-12T01:39:21;103068.38;;;9.42;100.00
3132;BME280;62090;52.330;9.104;2023-02-12T01:41:50;103092.13;;;9.54;100.00
3132;BME280;62090;52.330;9.104;2023-02-12T01:44:21;103124.97;;;9.75;100.00
3132;BME280;62090;52.330;9.104;2023-02-12T01:46:57;103116.03;;;9.69;100.00
3132;BME280;62090;52.330;9.104;2023-02-12T01:49:30;103137.81;;;9.77;100.00
3132;BME280;62090;52.330;9.104;2023-02-12T01:52:06;103098.88;;;9.53;100.00
3132;BME280;62090;52.330;9.104;2023-02-12T01:54:37;103085.25;;;9.40;100.00
3132;BME280;62090;52.330;9.104;2023-02-12T01:57:08;103125.44;;;9.57;100.00
3132;BME280;62090;52.330;9.104;2023-02-12T01:59:42;103143.06;;;9.67;100.00
3132;BME280;62090;52.330;9.104;2023-02-12T02:02:15;103088.56;;;9.39;100.00
3132;BME280;62090;52.330;9.104;2023-02-12T02:04:49;103106.19;;;9.49;100.00
3132;BME280;62090;52.330;9.104;2023-02-12T02:07:20;103138.16;;;9.57;100.00
3132;BME280;62090;52.330;9.104;2023-02-12T02:09:50;103148.66;;;9.74;100.00
3132;BME280;62090;52.330;9.104;2023-02-12T02:12:20;103142.78;;;9.75;100.00
3132;BME280;62090;52.330;9.104;2023-02-12T02:15:04;103136.41;;;9.69;100.00
3132;BME280;62090;52.330;9.104;2023-02-12T02:17:45;103144.16;;;9.70;100.00
3132;BME280;62090;52.330;9.104;2023-02-12T02:23:51;103124.63;;;9.58;100.00
3132;BME280;62090;52.330;9.104;2023-02-12T02:26:53;103137.41;;;9.71;100.00
3132;BME280;62090;52.330;9.104;2023-02-12T02:29:42;103095.41;;;9.40;100.00
3132;BME280;62090;52.330;9.104;2023-02-12T02:32:21;103091.88;;;9.38;100.00
3132;BME280;62090;52.330;9.104;2023-02-12T02:34:58;103109.16;;;9.55;100.00
3132;BME280;62090;52.330;9.104;2023-02-12T02:37:31;103135.63;;;9.70;100.00
3132;BME280;62090;52.330;9.104;2023-02-12T02:40:09;103093.38;;;9.47;100.00
3132;BME280;62090;52.330;9.104;2023-02-12T02:42:43;103125.75;;;9.74;100.00
3132;BME280;62090;52.330;9.104;2023-02-12T02:45:18;103105.44;;;9.63;100.00
3132;BME280;62090;52.330;9.104;2023-02-12T02:47:55;103072.22;;;9.35;100.00
3132;BME280;62090;52.330;9.104;2023-02-12T02:50:28;103117.09;;;9.59;100.00
3132;BME280;62090;52.330;9.104;2023-02-12T02:53:02;103067.78;;;9.32;100.00
3132;BME280;62090;52.330;9.104;2023-02-12T02:55:37;103091.34;;;9.55;100.00
3132;BME280;62090;52.330;9.104;2023-02-12T02:58:12;103044.78;;;9.31;100.00
3132;BME280;62090;52.330;9.104;2023-02-12T03:00:44;103112.72;;;9.70;100.00
3132;BME280;62090;52.330;9.104;2023-02-12T03:03:22;103128.69;;;9.81;100.00
3132;BME280;62090;52.330;9.104;2023-02-12T03:05:58;103117.81;;;9.70;100.00
3132;BME280;62090;52.330;9.104;2023-02-12T03:08:35;103084.47;;;9.54;100.00
3132;BME280;62090;52.330;9.104;2023-02-12T03:11:10;103039.19;;;9.23;100.00
3132;BME280;62090;52.330;9.104;2023-02-12T03:13:44;103072.81;;;9.44;100.00
3132;BME280;62090;52.330;9.104;2023-02-12T03:16:21;103136.16;;;9.78;100.00
3132;BME280;62090;52.330;9.104;2023-02-12T03:18:57;103047.25;;;9.29;100.00
3132;BME280;62090;52.330;9.104;2023-02-12T03:21:36;103139.75;;;9.81;100.00
3132;BME280;62090;52.330;9.104;2023-02-12T03:24:12;103101.94;;;9.61;100.00
3132;BME280;62090;52.330;9.104;2023-02-12T03:26:47;103139.66;;;9.80;100.00
3132;BME280;62090;52.330;9.104;2023-02-12T03:29:19;103124.78;;;9.72;100.00
3132;BME280;62090;52.330;9.104;2023-02-12T03:31:57;103031.34;;;9.20;100.00
3132;BME280;62090;52.330;9.104;2023-02-12T03:34:43;103062.22;;;9.38;100.00
3132;BME280;62090;52.330;9.104;2023-02-12T03:37:20;103119.00;;;9.75;100.00
3132;BME280;62090;52.330;9.104;2023-02-12T03:39:53;103141.63;;;9.84;100.00
3132;BME280;62090;52.330;9.104;2023-02-12T03:42:31;103136.63;;;9.85;100.00
3132;BME280;62090;52.330;9.104;2023-02-12T03:45:07;103123.31;;;9.76;100.00
3132;BME280;62090;52.330;9.104;2023-02-12T03:47:43;103145.84;;;9.83;100.00
3132;BME280;62090;52.330;9.104;2023-02-12T03:50:20;103122.31;;;9.74;100.00
3132;BME280;62090;52.330;9.104;2023-02-12T03:52:53;103100.06;;;9.58;100.00
3132;BME280;62090;52.330;9.104;2023-02-12T03:55:23;103136.81;;;9.75;100.00
3132;BME280;62090;52.330;9.104;2023-02-12T03:57:56;103148.88;;;9.78;100.00
3132;BME280;62090;52.330;9.104;2023-02-12T04:00:28;103083.06;;;9.32;100.00
3132;BME280;62090;52.330;9.104;2023-02-12T04:02:58;103091.69;;;9.35;100.00
3132;BME280;62090;52.330;9.104;2023-02-12T04:05:31;103087.94;;;9.29;100.00
3132;BME280;62090;52.330;9.104;2023-02-12T04:08:07;103169.81;;;9.73;100.00
3132;BME280;62090;52.330;9.104;2023-02-12T04:10:43;103148.84;;;9.64;100.00
3132;BME280;62090;52.330;9.104;2023-02-12T04:13:19;103154.63;;;9.62;100.00
3132;BME280;62090;52.330;9.104;2023-02-12T04:16:06;103152.16;;;9.63;100.00
3132;BME280;62090;52.330;9.104;2023-02-12T04:18:43;103181.75;;;9.74;100.00
3132;BME280;62090;52.330;9.104;2023-02-12T04:21:29;103163.63;;;9.70;100.00
3132;BME280;62090;52.330;9.104;2023-02-12T04:24:09;103185.31;;;9.77;100.00
3132;BME280;62090;52.330;9.104;2023-02-12T04:26:47;103182.94;;;9.80;100.00
3132;BME280;62090;52.330;9.104;2023-02-12T04:29:25;103142.56;;;9.59;100.00
3132;BME280;62090;52.330;9.104;2023-02-12T04:32:03;103164.53;;;9.70;100.00
3132;BME280;62090;52.330;9.104;2023-02-12T04:34:42;103185.78;;;9.84;100.00
3132;BME280;62090;52.330;9.104;2023-02-12T04:37:18;103147.53;;;9.58;100.00
3132;BME280;62090;52.330;9.104;2023-02-12T04:39:51;103170.38;;;9.69;100.00
3132;BME280;62090;52.330;9.104;2023-02-12T04:42:22;103154.19;;;9.56;100.00
3132;BME280;62090;52.330;9.104;2023-02-12T04:44:52;103163.09;;;9.62;100.00
3132;BME280;62090;52.330;9.104;2023-02-12T04:47:21;103185.56;;;9.68;100.00
3132;BME280;62090;52.330;9.104;2023-02-12T04:49:51;103175.66;;;9.59;100.00
3132;BME280;62090;52.330;9.104;2023-02-12T04:52:23;103160.84;;;9.54;100.00
3132;BME280;62090;52.330;9.104;2023-02-12T04:54:53;103167.91;;;9.58;100.00
3132;BME280;62090;52.330;9.104;2023-02-12T04:57:23;103145.84;;;9.45;100.00
3132;BME280;62090;52.330;9.104;2023-02-12T04:59:52;102983.94;;;8.46;100.00
3132;BME280;62090;52.330;9.104;2023-02-12T05:02:22;103193.31;;;9.69;100.00
3132;BME280;62090;52.330;9.104;2023-02-12T05:04:52;103141.09;;;9.38;100.00
3132;BME280;62090;52.330;9.104;2023-02-12T05:07:24;103167.59;;;9.53;100.00
3132;BME280;62090;52.330;9.104;2023-02-12T05:09:55;103095.03;;;9.09;100.00
3132;BME280;62090;52.330;9.104;2023-02-12T05:12:24;103145.28;;;9.24;100.00
3132;BME280;62090;52.330;9.104;2023-02-12T05:14:54;103148.38;;;9.20;100.00
3132;BME280;62090;52.330;9.104;2023-02-12T05:17:24;103157.56;;;9.18;100.00
3132;BME280;62090;52.330;9.104;2023-02-12T05:19:53;103190.25;;;9.37;100.00
3132;BME280;62090;52.330;9.104;2023-02-12T05:22:26;103169.59;;;9.21;100.00
3132;BME280;62090;52.330;9.104;2023-02-12T05:24:55;103175.13;;;9.27;100.00
3132;BME280;62090;52.330;9.104;2023-02-12T05:27:25;103090.47;;;8.80;100.00
3132;BME280;62090;52.330;9.104;2023-02-12T05:29:55;103019.09;;;8.40;100.00
3132;BME280;62090;52.330;9.104;2023-02-12T05:32:25;103164.28;;;9.29;100.00
3132;BME280;62090;52.330;9.104;2023-02-12T05:34:54;103118.44;;;9.05;100.00
3132;BME280;62090;52.330;9.104;2023-02-12T05:37:27;103133.19;;;9.09;100.00
3132;BME280;62090;52.330;9.104;2023-02-12T05:39:57;103192.09;;;9.51;100.00
3132;BME280;62090;52.330;9.104;2023-02-12T05:42:28;103161.94;;;9.32;100.00
3132;BME280;62090;52.330;9.104;2023-02-12T05:44:58;103198.03;;;9.52;100.00
3132;BME280;62090;52.330;9.104;2023-02-12T05:47:27;103132.91;;;9.17;100.00
3132;BME280;62090;52.330;9.104;2023-02-12T05:49:57;103154.66;;;9.25;100.00
3132;BME280;62090;52.330;9.104;2023-02-12T05:52:29;103178.81;;;9.44;100.00
3132;BME280;62090;52.330;9.104;2023-02-12T05:54:59;103185.69;;;9.45;100.00
3132;BME280;62090;52.330;9.104;2023-02-12T05:57:29;103164.47;;;9.32;100.00
3132;BME280;62090;52.330;9.104;2023-02-12T05:59:58;103082.28;;;8.84;100.00
3132;BME280;62090;52.330;9.104;2023-02-12T06:02:37;103138.78;;;9.16;100.00
3132;BME280;62090;52.330;9.104;2023-02-12T06:05:07;103189.34;;;9.37;100.00
3132;BME280;62090;52.330;9.104;2023-02-12T06:07:39;103159.22;;;9.18;100.00
3132;BME280;62090;52.330;9.104;2023-02-12T06:10:10;103169.16;;;9.26;100.00
3132;BME280;62090;52.330;9.104;2023-02-12T06:12:39;103154.72;;;9.14;100.00
3132;BME280;62090;52.330;9.104;2023-02-12T06:15:09;103175.38;;;9.18;100.00
3132;BME280;62090;52.330;9.104;2023-02-12T06:17:39;103195.00;;;9.32;100.00
3132;BME280;62090;52.330;9.104;2023-02-12T06:20:09;103199.22;;;9.32;100.00
3132;BME280;62090;52.330;9.104;2023-02-12T06:22:41;103178.13;;;9.21;100.00
3132;BME280;62090;52.330;9.104;2023-02-12T06:25:11;103200.00;;;9.31;100.00
3132;BME280;62090;52.330;9.104;2023-02-12T06:27:41;103169.09;;;9.13;100.00
3132;BME280;62090;52.330;9.104;2023-02-12T06:30:12;103132.31;;;8.97;100.00
3132;BME280;62090;52.330;9.104;2023-02-12T06:32:42;103202.38;;;9.41;100.00
3132;BME280;62090;52.330;9.104;2023-02-12T06:35:11;103148.97;;;9.05;100.00
3132;BME280;62090;52.330;9.104;2023-02-12T06:37:44;103170.91;;;9.27;100.00
3132;BME280;62090;52.330;9.104;2023-02-12T06:40:14;103208.69;;;9.46;100.00
3132;BME280;62090;52.330;9.104;2023-02-12T06:42:43;103217.00;;;9.44;100.00
3132;BME280;62090;52.330;9.104;2023-02-12T06:45:16;103208.69;;;9.46;100.00
3132;BME280;62090;52.330;9.104;2023-02-12T06:47:45;103132.63;;;9.01;100.00
3132;BME280;62090;52.330;9.104;2023-02-12T06:50:15;103151.63;;;9.06;100.00
3132;BME280;62090;52.330;9.104;2023-02-12T06:52:48;103130.66;;;8.97;100.00
3132;BME280;62090;52.330;9.104;2023-02-12T06:55:18;103245.16;;;9.58;100.00
3132;BME280;62090;52.330;9.104;2023-02-12T06:57:47;103159.56;;;9.11;100.00
3132;BME280;62090;52.330;9.104;2023-02-12T07:00:18;103221.97;;;9.42;100.00
3132;BME280;62090;52.330;9.104;2023-02-12T07:02:52;103223.28;;;9.49;100.00
3132;BME280;62090;52.330;9.104;2023-02-12T07:05:23;103246.03;;;9.59;100.00
3132;BME280;62090;52.330;9.104;2023-02-12T07:07:55;103230.34;;;9.53;100.00
3132;BME280;62090;52.330;9.104;2023-02-12T07:10:25;103191.31;;;9.16;100.00
3132;BME280;62090;52.330;9.104;2023-02-12T07:12:55;103062.38;;;8.42;100.00
3132;BME280;62090;52.330;9.104;2023-02-12T07:15:24;103212.63;;;9.29;100.00
3132;BME280;62090;52.330;9.104;2023-02-12T07:17:54;103223.63;;;9.42;100.00
3132;BME280;62090;52.330;9.104;2023-02-12T07:20:24;103205.88;;;9.30;100.00
3132;BME280;62090;52.330;9.104;2023-02-12T07:22:56;103262.81;;;9.68;100.00
3132;BME280;62090;52.330;9.104;2023-02-12T07:25:26;103222.44;;;9.37;100.00
3132;BME280;62090;52.330;9.104;2023-02-12T07:27:56;103231.25;;;9.42;100.00
3132;BME280;62090;52.330;9.104;2023-02-12T07:30:26;103250.72;;;9.53;100.00
3132;BME280;62090;52.330;9.104;2023-02-12T07:32:56;103227.84;;;9.41;100.00
3132;BME280;62090;52.330;9.104;2023-02-12T07:35:25;103207.97;;;9.36;100.00
3132;BME280;62090;52.330;9.104;2023-02-12T07:37:58;103234.09;;;9.58;100.00
3132;BME280;62090;52.330;9.104;2023-02-12T07:40:28;103178.69;;;9.17;100.00
3132;BME280;62090;52.330;9.104;2023-02-12T07:42:57;103259.53;;;9.58;100.00
3132;BME280;62090;52.330;9.104;2023-02-12T07:45:27;103241.00;;;9.47;100.00
3132;BME280;62090;52.330;9.104;2023-02-12T07:47:56;103278.78;;;9.66;100.00
3132;BME280;62090;52.330;9.104;2023-02-12T07:50:26;103223.00;;;9.32;100.00
3132;BME280;62090;52.330;9.104;2023-02-12T07:52:59;103227.53;;;9.37;100.00
3132;BME280;62090;52.330;9.104;2023-02-12T07:55:28;103256.03;;;9.56;100.00
3132;BME280;62090;52.330;9.104;2023-02-12T07:57:58;103279.69;;;9.66;100.00
3132;BME280;62090;52.330;9.104;2023-02-12T08:00:28;103268.06;;;9.58;100.00
3132;BME280;62090;52.330;9.104;2023-02-12T08:02:57;103270.72;;;9.60;100.00
3132;BME280;62090;52.330;9.104;2023-02-12T08:05:27;103245.09;;;9.45;100.00
3132;BME280;62090;52.330;9.104;2023-02-12T08:07:59;103247.25;;;9.27;100.00
3132;BME280;62090;52.330;9.104;2023-02-12T08:10:29;103282.59;;;9.48;100.00
3132;BME280;62090;52.330;9.104;2023-02-12T08:12:59;103292.78;;;9.48;100.00
3132;BME280;62090;52.330;9.104;2023-02-12T08:15:28;103283.44;;;9.35;100.00
3132;BME280;62090;52.330;9.104;2023-02-12T08:17:58;103299.44;;;9.46;100.00
3132;BME280;62090;52.330;9.104;2023-02-12T08:20:28;103293.22;;;9.42;100.00
3132;BME280;62090;52.330;9.104;2023-02-12T08:23:00;103267.84;;;9.30;100.00
3132;BME280;62090;52.330;9.104;2023-02-12T08:25:30;103250.50;;;9.13;100.00
3132;BME280;62090;52.330;9.104;2023-02-12T08:28:00;103296.03;;;9.33;100.00
3132;BME280;62090;52.330;9.104;2023-02-12T08:30:30;103306.66;;;9.40;100.00
3132;BME280;62090;52.330;9.104;2023-02-12T08:32:59;103254.59;;;9.11;100.00
3132;BME280;62090;52.330;9.104;2023-02-12T08:35:29;103248.63;;;8.99;100.00
3132;BME280;62090;52.330;9.104;2023-02-12T08:38:02;103274.59;;;9.18;100.00
3132;BME280;62090;52.330;9.104;2023-02-12T08:40:32;103266.78;;;9.04;100.00
3132;BME280;62090;52.330;9.104;2023-02-12T08:43:02;103263.69;;;8.96;100.00
3132;BME280;62090;52.330;9.104;2023-02-12T08:45:32;103298.72;;;9.23;100.00
3132;BME280;62090;52.330;9.104;2023-02-12T08:48:01;103316.28;;;9.32;100.00
3132;BME280;62090;52.330;9.104;2023-02-12T08:53:05;103262.22;;;9.11;100.00
3132;BME280;62090;52.330;9.104;2023-02-12T08:55:35;103319.13;;;9.48;100.00
3132;BME280;62090;52.330;9.104;2023-02-12T08:58:05;103162.25;;;8.53;100.00
3132;BME280;62090;52.330;9.104;2023-02-12T09:00:35;103255.13;;;9.19;100.00
3132;BME280;62090;52.330;9.104;2023-02-12T09:03:06;103308.28;;;9.51;100.00
3132;BME280;62090;52.330;9.104;2023-02-12T09:05:37;103322.84;;;9.65;100.00
3132;BME280;62090;52.330;9.104;2023-02-12T09:08:10;103275.09;;;9.38;100.00
3132;BME280;62090;52.330;9.104;2023-02-12T09:10:40;103289.25;;;9.46;100.00
3132;BME280;62090;52.330;9.104;2023-02-12T09:13:12;103279.53;;;9.40;100.00
3132;BME280;62090;52.330;9.104;2023-02-12T09:15:43;103315.22;;;9.53;100.00
3132;BME280;62090;52.330;9.104;2023-02-12T09:18:14;103288.84;;;9.40;100.00
3132;BME280;62090;52.330;9.104;2023-02-12T09:20:44;103338.13;;;9.65;100.00
3132;BME280;62090;52.330;9.104;2023-02-12T09:23:16;103327.00;;;9.51;100.00
3132;BME280;62090;52.330;9.104;2023-02-12T09:25:46;103343.84;;;9.74;100.00
3132;BME280;62090;52.330;9.104;2023-02-12T09:28:15;103296.31;;;9.50;100.00
3132;BME280;62090;52.330;9.104;2023-02-12T09:30:45;103347.41;;;9.76;100.00
3132;BME280;62090;52.330;9.104;2023-02-12T09:33:15;103337.34;;;9.66;100.00
3132;BME280;62090;52.330;9.104;2023-02-12T09:35:45;103344.72;;;9.74;100.00
3132;BME280;62090;52.330;9.104;2023-02-12T09:38:17;103297.09;;;9.49;100.00
3132;BME280;62090;52.330;9.104;2023-02-12T09:41:01;103322.97;;;9.66;100.00
3132;BME280;62090;52.330;9.104;2023-02-12T09:43:40;103352.47;;;9.88;100.00
3132;BME280;62090;52.330;9.104;2023-02-12T09:46:18;103298.31;;;9.54;100.00
3132;BME280;62090;52.330;9.104;2023-02-12T09:48:56;103217.75;;;9.18;100.00
3132;BME280;62090;52.330;9.104;2023-02-12T09:51:29;103329.06;;;9.93;100.00
3132;BME280;62090;52.330;9.104;2023-02-12T09:54:05;103308.31;;;9.75;100.00
3132;BME280;62090;52.330;9.104;2023-02-12T09:56:37;103271.53;;;9.47;100.00
3132;BME280;62090;52.330;9.104;2023-02-12T09:59:12;103205.91;;;9.18;100.00
3132;BME280;62090;52.330;9.104;2023-02-12T10:01:46;103345.97;;;10.04;100.00
3132;BME280;62090;52.330;9.104;2023-02-12T10:04:16;103313.56;;;9.90;100.00
3132;BME280;62090;52.330;9.104;2023-02-12T10:06:50;103350.56;;;10.22;100.00
3132;BME280;62090;52.330;9.104;2023-02-12T10:09:39;103340.19;;;10.07;100.00
3132;BME280;62090;52.330;9.104;2023-02-12T10:12:20;103334.47;;;9.98;100.00
3132;BME280;62090;52.330;9.104;2023-02-12T10:15:02;103318.47;;;9.87;100.00
3132;BME280;62090;52.330;9.104;2023-02-12T10:17:41;103356.56;;;10.10;100.00
3132;BME280;62090;52.330;9.104;2023-02-12T10:20:32;103312.94;;;9.81;100.00
3132;BME280;62090;52.330;9.104;2023-02-12T10:23:20;103322.78;;;9.88;100.00
3132;BME280;62090;52.330;9.104;2023-02-12T10:25:56;103280.91;;;9.60;100.00
3132;BME280;62090;52.330;9.104;2023-02-12T10:28:30;103352.63;;;10.02;100.00
3132;BME280;62090;52.330;9.104;2023-02-12T10:31:04;103356.34;;;10.07;100.00
3132;BME280;62090;52.330;9.104;2023-02-12T10:33:39;103354.38;;;10.03;100.00
3132;BME280;62090;52.330;9.104;2023-02-12T10:36:15;103333.03;;;9.90;100.00
3132;BME280;62090;52.330;9.104;2023-02-12T10:38:49;103303.09;;;9.74;100.00
3132;BME280;62090;52.330;9.104;2023-02-12T10:41:26;103369.53;;;10.13;100.00
3132;BME280;62090;52.330;9.104;2023-02-12T10:43:56;103292.50;;;9.68;100.00
3132;BME280;62090;52.330;9.104;2023-02-12T10:46:28;103357.75;;;10.15;100.00
3132;BME280;62090;52.330;9.104;2023-02-12T10:48:59;103341.38;;;10.12;100.00
3132;BME280;62090;52.330;9.104;2023-02-12T10:51:52;103337.81;;;10.22;100.00
3132;BME280;62090;52.330;9.104;2023-02-12T10:54:33;103350.63;;;10.35;100.00
3132;BME280;62090;52.330;9.104;2023-02-12T10:57:10;103367.41;;;10.44;100.00
3132;BME280;62090;52.330;9.104;2023-02-12T10:59:42;103319.31;;;10.24;100.00
3132;BME280;62090;52.330;9.104;2023-02-12T11:02:21;103354.47;;;10.41;100.00
3132;BME280;62090;52.330;9.104;2023-02-12T11:04:51;103329.34;;;10.34;100.00
3132;BME280;62090;52.330;9.104;2023-02-12T11:07:23;103316.31;;;10.43;100.00
3132;BME280;62090;52.330;9.104;2023-02-12T11:09:54;103353.22;;;10.61;100.00
3132;BME280;62090;52.330;9.104;2023-02-12T11:12:33;103343.81;;;10.60;100.00
3132;BME280;62090;52.330;9.104;2023-02-12T11:15:12;103352.53;;;10.64;100.00
3132;BME280;62090;52.330;9.104;2023-02-12T11:17:55;103332.59;;;10.58;100.00
3132;BME280;62090;52.330;9.104;2023-02-12T11:20:27;103354.72;;;10.71;100.00
3132;BME280;62090;52.330;9.104;2023-02-12T11:22:59;103353.94;;;10.72;100.00
3132;BME280;62090;52.330;9.104;2023-02-12T11:25:30;103351.09;;;10.67;100.00
3132;BME280;62090;52.330;9.104;2023-02-12T11:28:13;103336.16;;;10.60;100.00
3132;BME280;62090;52.330;9.104;2023-02-12T11:30:53;103327.63;;;10.59;100.00
3132;BME280;62090;52.330;9.104;2023-02-12T11:33:29;103325.66;;;10.55;100.00
3132;BME280;62090;52.330;9.104;2023-02-12T11:36:03;103327.38;;;10.43;100.00
3132;BME280;62090;52.330;9.104;2023-02-12T11:38:36;103316.53;;;10.46;100.00
3132;BME280;62090;52.330;9.104;2023-02-12T11:41:22;103311.44;;;10.46;100.00
3132;BME280;62090;52.330;9.104;2023-02-12T11:43:56;103330.06;;;10.58;100.00
3132;BME280;62090;52.330;9.104;2023-02-12T11:46:27;103337.63;;;10.56;100.00
3132;BME280;62090;52.330;9.104;2023-02-12T11:48:57;103315.53;;;10.44;100.00
3132;BME280;62090;52.330;9.104;2023-02-12T11:51:29;103299.16;;;10.40;100.00
3132;BME280;62090;52.330;9.104;2023-02-12T11:54:01;103323.28;;;10.58;100.00
3132;BME280;62090;52.330;9.104;2023-02-12T11:56:43;103330.34;;;10.49;100.00
3132;BME280;62090;52.330;9.104;2023-02-12T11:59:28;103332.81;;;10.61;100.00
3132;BME280;62090;52.330;9.104;2023-02-12T12:02:02;103322.81;;;10.64;100.00
3132;BME280;62090;52.330;9.104;2023-02-12T12:04:34;103277.88;;;10.40;100.00
3132;BME280;62090;52.330;9.104;2023-02-12T12:07:11;103332.97;;;10.89;100.00
3132;BME280;62090;52.330;9.104;2023-02-12T12:09:44;103328.03;;;10.92;100.00
3132;BME280;62090;52.330;9.104;2023-02-12T12:12:21;103302.13;;;10.86;100.00
3132;BME280;62090;52.330;9.104;2023-02-12T12:14:58;103310.00;;;10.89;100.00
3132;BME280;62090;52.330;9.104;2023-02-12T12:17:45;103280.47;;;10.66;100.00
3132;BME280;62090;52.330;9.104;2023-02-12T12:20:32;103316.19;;;10.92;100.00
3132;BME280;62090;52.330;9.104;2023-02-12T12:23:10;103255.22;;;10.44;100.00
3132;BME280;62090;52.330;9.104;2023-02-12T12:25:47;103301.44;;;10.75;100.00
3132;BME280;62090;52.330;9.104;2023-02-12T12:28:27;103309.00;;;10.87;100.00
3132;BME280;62090;52.330;9.104;2023-02-12T12:31:05;103325.09;;;10.86;100.00
3132;BME280;62090;52.330;9.104;2023-02-12T12:33:40;103294.69;;;10.76;100.00
3132;BME280;62090;52.330;9.104;2023-02-12T12:39:23;103298.59;;;11.10;100.00
3132;BME280;62090;52.330;9.104;2023-02-12T12:42:15;103301.84;;;11.21;100.00
3132;BME280;62090;52.330;9.104;2023-02-12T12:44:57;103309.84;;;11.27;100.00
3132;BME280;62090;52.330;9.104;2023-02-12T12:47:41;103309.34;;;11.32;100.00
3132;BME280;62090;52.330;9.104;2023-02-12T12:50:30;103284.75;;;11.07;100.00
3132;BME280;62090;52.330;9.104;2023-02-12T12:53:17;103300.47;;;11.13;100.00
3132;BME280;62090;52.330;9.104;2023-02-12T12:56:09;103279.19;;;10.99;100.00
3132;BME280;62090;52.330;9.104;2023-02-12T12:58:52;103283.78;;;11.05;100.00
3132;BME280;62090;52.330;9.104;2023-02-12T13:01:48;103281.03;;;11.01;100.00
3132;BME280;62090;52.330;9.104;2023-02-12T13:04:48;103269.75;;;10.98;100.00
3132;BME280;62090;52.330;9.104;2023-02-12T13:07:37;103246.72;;;10.83;100.00
3132;BME280;62090;52.330;9.104;2023-02-12T13:10:18;103220.31;;;10.70;100.00
3132;BME280;62090;52.330;9.104;2023-02-12T13:13:00;103271.13;;;10.93;100.00
3132;BME280;62090;52.330;9.104;2023-02-12T13:15:36;103270.03;;;10.89;100.00
3132;BME280;62090;52.330;9.104;2023-02-12T13:18:19;103265.16;;;10.92;100.00
3132;BME280;62090;52.330;9.104;2023-02-12T13:20:59;103239.06;;;10.83;100.00
3132;BME280;62090;52.330;9.104;2023-02-12T13:23:37;103277.19;;;11.08;100.00
3132;BME280;62090;52.330;9.104;2023-02-12T13:26:14;103268.28;;;11.01;100.00
3132;BME280;62090;52.330;9.104;2023-02-12T13:28:48;103206.28;;;10.63;100.00
3132;BME280;62090;52.330;9.104;2023-02-12T13:31:21;103277.09;;;11.07;100.00
3132;BME280;62090;52.330;9.104;2023-02-12T13:34:03;103246.00;;;10.99;100.00
3132;BME280;62090;52.330;9.104;2023-02-12T13:36:38;103277.88;;;11.19;100.00
3132;BME280;62090;52.330;9.104;2023-02-12T13:39:17;103234.31;;;10.89;100.00
3132;BME280;62090;52.330;9.104;2023-02-12T13:41:59;103260.22;;;10.95;100.00